Time,TemperatureF,DewpointF,PressureIn,WindDirection,WindDirectionDegrees,WindSpeedMPH,WindSpeedGustMPH,Humidity,HourlyPrecipIn,Conditions,Clouds,dailyrainin,SoftwareType,DateUTC
2013-05-14 00:00:00,42.7,40.5,30.15,North,355,0.0,0.0,92,0.00,,BKN055,0.00,VWS V14.00,2013-05-14 04:00:00,
2013-05-14 00:01:00,42.7,40.5,30.15,North,355,0.0,0.0,92,0.00,,BKN055,0.00,VWS V14.00,2013-05-14 04:01:00,
2013-05-14 00:10:00,42.2,39.8,30.15,North,355,0.0,2.0,91,0.00,,BKN055,0.00,VWS V14.00,2013-05-14 04:10:00,
2013-05-14 00:11:00,42.2,39.8,30.15,North,355,0.0,2.0,91,0.00,,BKN055,0.00,VWS V14.00,2013-05-14 04:11:00,
2013-05-14 00:20:00,42.0,40.1,30.15,North,355,0.0,2.0,93,0.00,,BKN055,0.00,VWS V14.00,2013-05-14 04:20:00,
2013-05-14 00:21:00,42.0,40.1,30.15,North,355,0.0,2.0,93,0.00,,BKN055,0.00,VWS V14.00,2013-05-14 04:21:00,
2013-05-14 00:30:00,41.8,39.9,30.14,North,355,0.0,1.0,93,0.00,,BKN055,0.00,VWS V14.00,2013-05-14 04:30:00,
2013-05-14 00:31:00,41.8,39.9,30.14,North,355,0.0,1.0,93,0.00,,BKN055,0.00,VWS V14.00,2013-05-14 04:31:00,
2013-05-14 00:40:00,41.8,39.9,30.14,North,355,2.0,2.0,93,0.00,,BKN055,0.00,VWS V14.00,2013-05-14 04:40:00,
2013-05-14 00:41:00,41.8,39.9,30.14,North,355,2.0,2.0,93,0.00,,BKN055,0.00,VWS V14.00,2013-05-14 04:41:00,
2013-05-14 00:50:00,41.6,39.7,30.15,North,355,0.0,2.0,93,0.00,,BKN055,0.00,VWS V14.00,2013-05-14 04:50:00,
2013-05-14 00:51:00,41.6,39.7,30.15,North,355,0.0,2.0,93,0.00,,BKN055,0.00,VWS V14.00,2013-05-14 04:51:00,
2013-05-14 01:00:00,41.3,39.4,30.14,North,355,0.0,3.0,93,0.00,,BKN055,0.00,VWS V14.00,2013-05-14 05:00:00,
2013-05-14 01:01:00,41.3,39.4,30.14,North,355,0.0,3.0,93,0.00,,BKN055,0.00,VWS V14.00,2013-05-14 05:01:00,
2013-05-14 01:10:00,41.2,39.6,30.14,North,355,0.0,0.0,94,0.00,,BKN055,0.00,VWS V14.00,2013-05-14 05:10:00,
2013-05-14 01:11:00,41.2,39.6,30.14,North,355,0.0,0.0,94,0.00,,BKN055,0.00,VWS V14.00,2013-05-14 05:11:00,
2013-05-14 01:20:00,41.1,39.5,30.13,North,355,0.0,0.0,94,0.00,,BKN055,0.00,VWS V14.00,2013-05-14 05:20:00,
2013-05-14 01:21:00,41.1,39.5,30.13,North,355,0.0,0.0,94,0.00,,BKN055,0.00,VWS V14.00,2013-05-14 05:21:00,
2013-05-14 01:30:00,40.7,39.1,30.13,North,355,0.0,0.0,94,0.00,,BKN055,0.00,VWS V14.00,2013-05-14 05:30:00,
2013-05-14 01:31:00,40.7,39.1,30.13,North,355,0.0,0.0,94,0.00,,BKN055,0.00,VWS V14.00,2013-05-14 05:31:00,
2013-05-14 01:40:00,40.3,38.7,30.13,North,355,0.0,0.0,94,0.00,,BKN055,0.00,VWS V14.00,2013-05-14 05:40:00,
2013-05-14 01:41:00,40.3,38.7,30.13,North,355,0.0,0.0,94,0.00,,BKN055,0.00,VWS V14.00,2013-05-14 05:41:00,
2013-05-14 01:50:00,40.2,38.9,30.13,North,355,2.0,2.0,95,0.00,,BKN055,0.00,VWS V14.00,2013-05-14 05:50:00,
2013-05-14 01:51:00,40.2,38.9,30.13,North,355,2.0,2.0,95,0.00,,BKN055,0.00,VWS V14.00,2013-05-14 05:51:00,
2013-05-14 02:00:00,40.0,38.7,30.13,North,355,0.0,2.0,95,0.00,,BKN055,0.00,VWS V14.00,2013-05-14 06:00:00,
2013-05-14 02:10:00,40.0,38.7,30.13,North,355,1.0,2.0,95,0.00,,BKN055,0.00,VWS V14.00,2013-05-14 06:10:00,
2013-05-14 02:11:00,40.0,38.7,30.13,North,355,1.0,2.0,95,0.00,,BKN055,0.00,VWS V14.00,2013-05-14 06:11:00,
2013-05-14 02:20:00,40.0,39.0,30.13,North,355,0.0,2.0,96,0.00,,BKN055,0.00,VWS V14.00,2013-05-14 06:20:00,
2013-05-14 02:30:00,40.1,39.0,30.13,North,355,0.0,0.0,96,0.00,,BKN055,0.00,VWS V14.00,2013-05-14 06:30:00,
2013-05-14 02:31:00,40.1,39.0,30.13,North,355,0.0,0.0,96,0.00,,BKN055,0.00,VWS V14.00,2013-05-14 06:31:00,
2013-05-14 02:40:00,40.4,39.3,30.13,North,355,0.0,2.0,96,0.00,,BKN055,0.00,VWS V14.00,2013-05-14 06:40:00,
2013-05-14 02:50:00,40.3,39.2,30.13,North,355,0.0,0.0,96,0.00,,BKN055,0.00,VWS V14.00,2013-05-14 06:50:00,
2013-05-14 02:51:00,40.3,39.2,30.13,North,355,0.0,0.0,96,0.00,,BKN055,0.00,VWS V14.00,2013-05-14 06:51:00,
2013-05-14 03:00:00,40.3,39.2,30.13,North,355,0.0,0.0,96,0.00,,BKN055,0.00,VWS V14.00,2013-05-14 07:00:00,
2013-05-14 03:01:00,40.3,39.2,30.13,North,355,0.0,0.0,96,0.00,,BKN055,0.00,VWS V14.00,2013-05-14 07:01:00,
2013-05-14 03:10:00,40.5,39.5,30.13,North,355,0.0,3.0,96,0.00,,BKN055,0.00,VWS V14.00,2013-05-14 07:10:00,
2013-05-14 03:11:00,40.5,39.5,30.13,North,355,0.0,3.0,96,0.00,,BKN055,0.00,VWS V14.00,2013-05-14 07:11:00,
2013-05-14 03:20:00,40.8,40.0,30.12,North,355,0.0,3.0,97,0.00,,BKN055,0.00,VWS V14.00,2013-05-14 07:20:00,
2013-05-14 03:30:00,41.1,40.3,30.12,North,355,0.0,0.0,97,0.00,,BKN055,0.00,VWS V14.00,2013-05-14 07:30:00,
2013-05-14 03:31:00,41.1,40.3,30.12,North,355,0.0,0.0,97,0.00,,BKN055,0.00,VWS V14.00,2013-05-14 07:31:00,
2013-05-14 03:40:00,41.3,40.5,30.11,North,355,0.0,4.0,97,0.00,,BKN055,0.00,VWS V14.00,2013-05-14 07:40:00,
2013-05-14 03:50:00,41.5,40.7,30.11,North,355,0.0,4.0,97,0.00,,BKN055,0.00,VWS V14.00,2013-05-14 07:50:00,
2013-05-14 03:51:00,41.5,40.7,30.11,North,355,0.0,4.0,97,0.00,,BKN055,0.00,VWS V14.00,2013-05-14 07:51:00,
2013-05-14 04:00:00,42.0,41.2,30.11,North,355,0.0,0.0,97,0.00,,BKN055,0.00,VWS V14.00,2013-05-14 08:00:00,
2013-05-14 04:01:00,42.0,41.2,30.11,North,355,0.0,0.0,97,0.00,,BKN055,0.00,VWS V14.00,2013-05-14 08:01:00,
2013-05-14 04:10:00,42.2,41.4,30.11,North,355,0.0,0.0,97,0.00,,BKN055,0.00,VWS V14.00,2013-05-14 08:10:00,
2013-05-14 04:11:00,42.2,41.4,30.11,North,355,0.0,0.0,97,0.00,,BKN055,0.00,VWS V14.00,2013-05-14 08:11:00,
2013-05-14 04:20:00,42.1,41.3,30.10,North,355,0.0,0.0,97,0.00,,BKN055,0.00,VWS V14.00,2013-05-14 08:20:00,
2013-05-14 04:30:00,42.1,41.3,30.10,North,355,0.0,0.0,97,0.00,,BKN055,0.00,VWS V14.00,2013-05-14 08:30:00,
2013-05-14 04:40:00,42.2,41.4,30.10,North,355,0.0,1.0,97,0.00,,BKN055,0.00,VWS V14.00,2013-05-14 08:40:00,
2013-05-14 04:50:00,42.2,41.4,30.09,North,355,0.0,2.0,97,0.00,,BKN055,0.00,VWS V14.00,2013-05-14 08:50:00,
2013-05-14 04:51:00,42.2,41.4,30.09,North,355,0.0,2.0,97,0.00,,BKN055,0.00,VWS V14.00,2013-05-14 08:51:00,
2013-05-14 05:00:00,42.5,41.7,30.10,North,355,0.0,0.0,97,0.00,,BKN055,0.00,VWS V14.00,2013-05-14 09:00:00,
2013-05-14 05:01:00,42.5,41.7,30.10,North,355,0.0,0.0,97,0.00,,BKN055,0.00,VWS V14.00,2013-05-14 09:01:00,
2013-05-14 05:10:00,42.8,42.0,30.10,North,355,0.0,2.0,97,0.00,,BKN055,0.00,VWS V14.00,2013-05-14 09:10:00,
2013-05-14 05:11:00,42.8,42.0,30.10,North,355,0.0,2.0,97,0.00,,BKN055,0.00,VWS V14.00,2013-05-14 09:11:00,
2013-05-14 05:20:00,43.0,42.2,30.09,North,355,0.0,0.0,97,0.00,,BKN055,0.00,VWS V14.00,2013-05-14 09:20:00,
2013-05-14 05:21:00,43.0,42.2,30.09,North,355,0.0,0.0,97,0.00,,BKN055,0.00,VWS V14.00,2013-05-14 09:21:00,
2013-05-14 05:30:00,43.2,42.4,30.09,North,355,0.0,0.0,97,0.00,,BKN055,0.00,VWS V14.00,2013-05-14 09:30:00,
2013-05-14 05:31:00,43.2,42.4,30.09,North,355,0.0,0.0,97,0.00,,BKN055,0.00,VWS V14.00,2013-05-14 09:31:00,
2013-05-14 05:40:00,43.3,42.8,30.09,North,355,0.0,0.0,98,0.00,,BKN055,0.00,VWS V14.00,2013-05-14 09:40:00,
2013-05-14 05:41:00,43.3,42.8,30.09,North,355,0.0,0.0,98,0.00,,BKN055,0.00,VWS V14.00,2013-05-14 09:41:00,
2013-05-14 05:50:00,43.4,42.6,30.09,North,355,0.0,1.0,97,0.00,,BKN055,0.00,VWS V14.00,2013-05-14 09:50:00,
2013-05-14 05:51:00,43.4,42.6,30.09,North,355,0.0,1.0,97,0.00,,BKN055,0.00,VWS V14.00,2013-05-14 09:51:00,
2013-05-14 06:00:00,43.4,42.6,30.09,North,355,0.0,0.0,97,0.00,,BKN055,0.00,VWS V14.00,2013-05-14 10:00:00,
2013-05-14 06:01:00,43.4,42.6,30.09,North,355,0.0,0.0,97,0.00,,BKN055,0.00,VWS V14.00,2013-05-14 10:01:00,
2013-05-14 06:10:00,43.5,42.7,30.09,North,355,0.0,0.0,97,0.00,,BKN055,0.00,VWS V14.00,2013-05-14 10:10:00,
2013-05-14 06:11:00,43.5,42.7,30.09,North,355,0.0,0.0,97,0.00,,BKN055,0.00,VWS V14.00,2013-05-14 10:11:00,
2013-05-14 06:20:00,43.7,42.9,30.09,North,355,0.0,0.0,97,0.00,,BKN055,0.00,VWS V14.00,2013-05-14 10:20:00,
2013-05-14 06:21:00,43.7,42.9,30.09,North,355,0.0,0.0,97,0.00,,BKN055,0.00,VWS V14.00,2013-05-14 10:21:00,
2013-05-14 06:30:00,43.8,43.3,30.09,North,355,0.0,1.0,98,0.00,,BKN055,0.00,VWS V14.00,2013-05-14 10:30:00,
2013-05-14 06:31:00,43.8,43.3,30.09,North,355,0.0,1.0,98,0.00,,BKN055,0.00,VWS V14.00,2013-05-14 10:31:00,
2013-05-14 06:40:00,43.6,42.8,30.10,North,355,0.0,0.0,97,0.00,,BKN055,0.00,VWS V14.00,2013-05-14 10:40:00,
2013-05-14 06:41:00,43.6,42.8,30.10,North,355,0.0,0.0,97,0.00,,BKN055,0.00,VWS V14.00,2013-05-14 10:41:00,
2013-05-14 06:50:00,43.3,42.5,30.09,North,355,0.0,0.0,97,0.00,,BKN055,0.00,VWS V14.00,2013-05-14 10:50:00,
2013-05-14 06:51:00,43.3,42.5,30.09,North,355,0.0,0.0,97,0.00,,BKN055,0.00,VWS V14.00,2013-05-14 10:51:00,
2013-05-14 07:00:00,43.1,42.3,30.09,North,355,0.0,0.0,97,0.00,,BKN055,0.00,VWS V14.00,2013-05-14 11:00:00,
2013-05-14 07:01:00,43.1,42.3,30.09,North,355,0.0,0.0,97,0.00,,BKN055,0.00,VWS V14.00,2013-05-14 11:01:00,
2013-05-14 07:10:00,42.9,42.1,30.09,North,355,0.0,0.0,97,0.00,,BKN055,0.00,VWS V14.00,2013-05-14 11:10:00,
2013-05-14 07:11:00,42.9,42.1,30.09,North,355,0.0,0.0,97,0.00,,BKN055,0.00,VWS V14.00,2013-05-14 11:11:00,
2013-05-14 07:20:00,42.9,42.1,30.10,North,355,0.0,0.0,97,0.00,,BKN055,0.00,VWS V14.00,2013-05-14 11:20:00,
2013-05-14 07:21:00,42.9,42.1,30.10,North,355,0.0,0.0,97,0.00,,BKN055,0.00,VWS V14.00,2013-05-14 11:21:00,
2013-05-14 07:30:00,43.1,42.3,30.10,WNW,298,0.0,1.0,97,0.00,,BKN055,0.00,VWS V14.00,2013-05-14 11:30:00,
2013-05-14 07:31:00,43.1,42.3,30.10,WNW,298,0.0,1.0,97,0.00,,BKN055,0.00,VWS V14.00,2013-05-14 11:31:00,
2013-05-14 07:40:00,43.7,43.2,30.10,NW,314,0.0,2.0,98,0.00,,BKN055,0.00,VWS V14.00,2013-05-14 11:40:00,
2013-05-14 07:41:00,43.7,43.2,30.10,NW,314,0.0,2.0,98,0.00,,BKN055,0.00,VWS V14.00,2013-05-14 11:41:00,
2013-05-14 07:50:00,44.4,43.9,30.10,NW,314,0.0,0.0,98,0.00,,BKN055,0.00,VWS V14.00,2013-05-14 11:50:00,
2013-05-14 07:51:00,44.4,43.9,30.10,NW,314,0.0,0.0,98,0.00,,BKN055,0.00,VWS V14.00,2013-05-14 11:51:00,
2013-05-14 08:00:00,45.0,44.5,30.10,NNE,19,0.0,1.0,98,0.00,,BKN055,0.00,VWS V14.00,2013-05-14 12:00:00,
2013-05-14 08:01:00,45.0,44.5,30.10,NNE,19,0.0,1.0,98,0.00,,BKN055,0.00,VWS V14.00,2013-05-14 12:01:00,
2013-05-14 08:10:00,45.8,45.3,30.10,NNE,20,0.0,0.0,98,0.00,,BKN055,0.00,VWS V14.00,2013-05-14 12:10:00,
2013-05-14 08:11:00,45.8,45.3,30.10,NNE,20,0.0,0.0,98,0.00,,BKN055,0.00,VWS V14.00,2013-05-14 12:11:00,
2013-05-14 08:20:00,46.4,45.9,30.09,NNE,19,0.0,0.0,98,0.00,,BKN055,0.00,VWS V14.00,2013-05-14 12:20:00,
2013-05-14 08:21:00,46.4,45.9,30.09,NNE,19,0.0,0.0,98,0.00,,BKN055,0.00,VWS V14.00,2013-05-14 12:21:00,
2013-05-14 08:30:00,47.3,47.0,30.09,NNW,344,0.0,0.0,99,0.00,,BKN055,0.00,VWS V14.00,2013-05-14 12:30:00,
2013-05-14 08:31:00,47.3,47.0,30.09,NNW,344,0.0,0.0,99,0.00,,BKN055,0.00,VWS V14.00,2013-05-14 12:31:00,
2013-05-14 08:40:00,48.5,48.2,30.09,NNW,344,0.0,0.0,99,0.00,,BKN055,0.00,VWS V14.00,2013-05-14 12:40:00,
2013-05-14 08:41:00,48.5,48.2,30.09,NNW,344,0.0,0.0,99,0.00,,BKN055,0.00,VWS V14.00,2013-05-14 12:41:00,
2013-05-14 08:50:00,49.5,49.0,30.09,SE,142,0.0,1.0,98,0.00,,BKN055,0.00,VWS V14.00,2013-05-14 12:50:00,
2013-05-14 08:51:00,49.5,49.0,30.09,SE,142,0.0,1.0,98,0.00,,BKN055,0.00,VWS V14.00,2013-05-14 12:51:00,
2013-05-14 09:00:00,51.5,49.0,30.09,SE,142,0.0,2.0,91,0.00,,BKN055,0.00,VWS V14.00,2013-05-14 13:00:00,
2013-05-14 09:01:00,51.5,49.0,30.09,SE,142,0.0,2.0,91,0.00,,BKN055,0.00,VWS V14.00,2013-05-14 13:01:00,
2013-05-14 09:10:00,53.5,48.2,30.08,SSW,205,0.0,3.0,82,0.00,,BKN055,0.00,VWS V14.00,2013-05-14 13:10:00,
2013-05-14 09:11:00,53.5,48.2,30.08,SSW,205,0.0,3.0,82,0.00,,BKN055,0.00,VWS V14.00,2013-05-14 13:11:00,
2013-05-14 09:20:00,54.8,48.4,30.07,SSW,213,0.0,2.0,79,0.00,,BKN055,0.00,VWS V14.00,2013-05-14 13:20:00,
2013-05-14 09:21:00,54.8,48.4,30.07,SSW,213,0.0,2.0,79,0.00,,BKN055,0.00,VWS V14.00,2013-05-14 13:21:00,
2013-05-14 09:30:00,56.1,49.0,30.07,SSW,213,0.0,1.0,77,0.00,,BKN055,0.00,VWS V14.00,2013-05-14 13:30:00,
2013-05-14 09:31:00,56.1,49.0,30.07,SSW,213,0.0,1.0,77,0.00,,BKN055,0.00,VWS V14.00,2013-05-14 13:31:00,
2013-05-14 09:40:00,58.4,48.3,30.06,SSW,197,3.0,5.0,69,0.00,,BKN055,0.00,VWS V14.00,2013-05-14 13:40:00,
2013-05-14 09:41:00,58.4,48.3,30.06,SSW,197,3.0,5.0,69,0.00,,BKN055,0.00,VWS V14.00,2013-05-14 13:41:00,
2013-05-14 09:50:00,59.0,49.2,30.06,SSE,163,0.0,4.0,70,0.00,,BKN055,0.00,VWS V14.00,2013-05-14 13:50:00,
2013-05-14 09:51:00,59.0,49.2,30.06,SSE,163,0.0,4.0,70,0.00,,BKN055,0.00,VWS V14.00,2013-05-14 13:51:00,
2013-05-14 10:00:00,60.5,51.4,30.06,South,181,0.0,3.0,72,0.00,,BKN055,0.00,VWS V14.00,2013-05-14 14:00:00,
2013-05-14 10:01:00,60.5,51.4,30.06,South,181,0.0,3.0,72,0.00,,BKN055,0.00,VWS V14.00,2013-05-14 14:01:00,
2013-05-14 10:10:00,61.7,50.7,30.06,ESE,122,0.0,3.0,67,0.00,,BKN055,0.00,VWS V14.00,2013-05-14 14:10:00,
2013-05-14 10:11:00,61.7,50.6,30.06,ESE,122,0.0,3.0,67,0.00,,BKN055,0.00,VWS V14.00,2013-05-14 14:11:00,
2013-05-14 10:20:00,62.9,53.0,30.05,South,175,0.0,5.0,70,0.00,,BKN055,0.00,VWS V14.00,2013-05-14 14:20:00,
2013-05-14 10:21:00,62.9,53.0,30.05,South,175,0.0,5.0,70,0.00,,BKN055,0.00,VWS V14.00,2013-05-14 14:21:00,
2013-05-14 10:30:00,64.2,52.2,30.04,South,172,0.0,4.0,65,0.00,,BKN055,0.00,VWS V14.00,2013-05-14 14:30:00,
2013-05-14 10:31:00,64.2,52.2,30.04,South,172,0.0,4.0,65,0.00,,BKN055,0.00,VWS V14.00,2013-05-14 14:31:00,
2013-05-14 10:40:00,65.6,53.1,30.02,West,271,0.0,1.0,64,0.00,,BKN055,0.00,VWS V14.00,2013-05-14 14:40:00,
2013-05-14 10:41:00,65.6,53.1,30.02,West,271,0.0,1.0,64,0.00,,BKN055,0.00,VWS V14.00,2013-05-14 14:41:00,
2013-05-14 10:50:00,66.5,53.5,30.02,South,184,0.0,6.0,63,0.00,,BKN055,0.00,VWS V14.00,2013-05-14 14:50:00,
2013-05-14 10:51:00,66.5,53.5,30.02,South,184,0.0,6.0,63,0.00,,BKN055,0.00,VWS V14.00,2013-05-14 14:51:00,
2013-05-14 11:00:00,67.3,55.2,30.02,NNE,25,0.0,5.0,65,0.00,,BKN055,0.00,VWS V14.00,2013-05-14 15:00:00,
2013-05-14 11:01:00,67.3,55.2,30.02,NNE,25,0.0,5.0,65,0.00,,BKN055,0.00,VWS V14.00,2013-05-14 15:01:00,
2013-05-14 11:10:00,68.5,55.0,30.02,West,263,0.0,3.0,62,0.00,,BKN055,0.00,VWS V14.00,2013-05-14 15:10:00,
2013-05-14 11:11:00,68.5,55.0,30.02,West,263,0.0,3.0,62,0.00,,BKN055,0.00,VWS V14.00,2013-05-14 15:11:00,
2013-05-14 11:20:00,69.6,56.5,30.01,WSW,254,0.0,1.0,63,0.00,,BKN055,0.00,VWS V14.00,2013-05-14 15:20:00,
2013-05-14 11:21:00,69.6,56.5,30.01,WSW,254,0.0,1.0,63,0.00,,BKN055,0.00,VWS V14.00,2013-05-14 15:21:00,
2013-05-14 11:30:00,69.9,54.5,30.01,South,184,0.0,5.0,58,0.00,,BKN055,0.00,VWS V14.00,2013-05-14 15:30:00,
2013-05-14 11:31:00,69.9,54.5,30.01,South,184,0.0,5.0,58,0.00,,BKN055,0.00,VWS V14.00,2013-05-14 15:31:00,
2013-05-14 11:40:00,69.9,57.2,30.00,ENE,63,0.0,7.0,64,0.00,,BKN055,0.00,VWS V14.00,2013-05-14 15:40:00,
2013-05-14 11:41:00,69.9,57.2,30.00,ENE,63,0.0,7.0,64,0.00,,BKN055,0.00,VWS V14.00,2013-05-14 15:41:00,
2013-05-14 11:50:00,70.7,56.6,30.00,SSW,213,0.0,7.0,61,0.00,,BKN055,0.00,VWS V14.00,2013-05-14 15:50:00,
2013-05-14 11:51:00,70.7,56.6,30.00,SSW,213,0.0,7.0,61,0.00,,BKN055,0.00,VWS V14.00,2013-05-14 15:51:00,
2013-05-14 12:00:00,71.1,57.9,29.99,WSW,257,0.0,6.0,63,0.00,,BKN055,0.00,VWS V14.00,2013-05-14 16:00:00,
2013-05-14 12:01:00,71.1,57.9,29.99,WSW,257,0.0,6.0,63,0.00,,BKN055,0.00,VWS V14.00,2013-05-14 16:01:00,
2013-05-14 12:10:00,71.7,56.6,29.98,North,355,0.0,5.0,59,0.00,,BKN055,0.00,VWS V14.00,2013-05-14 16:10:00,
2013-05-14 12:11:00,71.7,56.6,29.98,North,355,0.0,5.0,59,0.00,,BKN055,0.00,VWS V14.00,2013-05-14 16:11:00,
2013-05-14 12:20:00,71.7,57.1,29.98,ESE,106,0.0,9.0,60,0.00,,BKN055,0.00,VWS V14.00,2013-05-14 16:20:00,
2013-05-14 12:21:00,71.7,57.1,29.98,ESE,106,0.0,9.0,60,0.00,,BKN055,0.00,VWS V14.00,2013-05-14 16:21:00,
2013-05-14 12:30:00,72.0,58.3,29.98,WSW,246,0.0,6.0,62,0.00,,BKN055,0.00,VWS V14.00,2013-05-14 16:30:00,
2013-05-14 12:31:00,72.0,58.3,29.98,WSW,246,0.0,6.0,62,0.00,,BKN055,0.00,VWS V14.00,2013-05-14 16:31:00,
2013-05-14 12:40:00,71.7,58.0,29.97,WNW,300,0.0,15.0,62,0.00,,BKN055,0.00,VWS V14.00,2013-05-14 16:40:00,
2013-05-14 12:41:00,71.7,58.0,29.97,WNW,300,0.0,15.0,62,0.00,,BKN055,0.00,VWS V14.00,2013-05-14 16:41:00,
2013-05-14 12:50:00,72.2,59.8,29.97,SSE,165,0.0,12.0,65,0.00,,BKN055,0.00,VWS V14.00,2013-05-14 16:50:00,
2013-05-14 12:51:00,72.2,59.8,29.97,SSE,165,0.0,12.0,65,0.00,,BKN055,0.00,VWS V14.00,2013-05-14 16:51:00,
2013-05-14 13:00:00,73.0,59.7,29.96,South,175,0.0,7.0,63,0.00,,BKN055,0.00,VWS V14.00,2013-05-14 17:00:00,
2013-05-14 13:01:00,73.0,59.7,29.96,South,175,0.0,7.0,63,0.00,,BKN055,0.00,VWS V14.00,2013-05-14 17:01:00,
2013-05-14 13:10:00,73.5,60.6,29.95,SSW,198,0.0,5.0,64,0.00,,BKN055,0.00,VWS V14.00,2013-05-14 17:10:00,
2013-05-14 13:11:00,73.5,60.6,29.95,SSW,198,0.0,5.0,64,0.00,,BKN055,0.00,VWS V14.00,2013-05-14 17:11:00,
2013-05-14 13:20:00,74.4,59.6,29.94,West,263,0.0,1.0,60,0.00,,BKN055,0.00,VWS V14.00,2013-05-14 17:20:00,
2013-05-14 13:21:00,74.4,59.6,29.94,West,263,0.0,1.0,60,0.00,,BKN055,0.00,VWS V14.00,2013-05-14 17:21:00,
2013-05-14 13:30:00,74.9,59.6,29.94,SW,236,0.0,5.0,59,0.00,,BKN055,0.00,VWS V14.00,2013-05-14 17:30:00,
2013-05-14 13:31:00,74.9,59.6,29.94,SW,236,0.0,5.0,59,0.00,,BKN055,0.00,VWS V14.00,2013-05-14 17:31:00,
2013-05-14 13:40:00,75.4,62.4,29.93,SW,227,0.0,4.0,64,0.00,,BKN055,0.00,VWS V14.00,2013-05-14 17:40:00,
2013-05-14 13:41:00,75.4,62.4,29.93,SW,227,0.0,4.0,64,0.00,,BKN055,0.00,VWS V14.00,2013-05-14 17:41:00,
2013-05-14 13:50:00,75.5,58.2,29.92,South,176,0.0,11.0,55,0.00,,BKN055,0.00,VWS V14.00,2013-05-14 17:50:00,
2013-05-14 13:51:00,75.5,58.2,29.92,South,176,0.0,11.0,55,0.00,,BKN055,0.00,VWS V14.00,2013-05-14 17:51:00,
2013-05-14 14:00:00,76.0,59.2,29.91,SW,226,0.0,7.0,56,0.00,,BKN055,0.00,VWS V14.00,2013-05-14 18:00:00,
2013-05-14 14:01:00,76.0,59.2,29.91,SW,226,0.0,7.0,56,0.00,,BKN055,0.00,VWS V14.00,2013-05-14 18:01:00,
2013-05-14 14:10:00,76.2,61.3,29.91,South,190,9.0,9.0,60,0.00,,BKN055,0.00,VWS V14.00,2013-05-14 18:10:00,
2013-05-14 14:11:00,76.2,61.3,29.91,South,190,9.0,9.0,60,0.00,,BKN055,0.00,VWS V14.00,2013-05-14 18:11:00,
2013-05-14 14:20:00,76.7,59.8,29.90,West,271,0.0,12.0,56,0.00,,BKN055,0.00,VWS V14.00,2013-05-14 18:20:00,
2013-05-14 14:21:00,76.7,59.8,29.90,West,271,0.0,12.0,56,0.00,,BKN055,0.00,VWS V14.00,2013-05-14 18:21:00,
2013-05-14 14:30:00,77.3,63.7,29.90,SSW,209,0.0,7.0,63,0.00,,BKN055,0.00,VWS V14.00,2013-05-14 18:30:00,
2013-05-14 14:31:00,77.3,63.7,29.90,SSW,209,0.0,7.0,63,0.00,,BKN055,0.00,VWS V14.00,2013-05-14 18:31:00,
2013-05-14 14:40:00,77.9,62.9,29.89,SE,140,0.0,13.0,60,0.00,,BKN055,0.00,VWS V14.00,2013-05-14 18:40:00,
2013-05-14 14:41:00,77.9,62.9,29.89,SE,140,0.0,13.0,60,0.00,,BKN055,0.00,VWS V14.00,2013-05-14 18:41:00,
2013-05-14 14:50:00,78.7,62.2,29.89,SW,215,0.0,6.0,57,0.00,,BKN055,0.00,VWS V14.00,2013-05-14 18:50:00,
2013-05-14 14:51:00,78.7,62.2,29.89,SW,215,0.0,6.0,57,0.00,,BKN055,0.00,VWS V14.00,2013-05-14 18:51:00,
2013-05-14 15:00:00,78.9,64.3,29.88,WSW,254,0.0,7.0,61,0.00,,BKN055,0.00,VWS V14.00,2013-05-14 19:00:00,
2013-05-14 15:01:00,78.9,64.3,29.88,WSW,254,0.0,7.0,61,0.00,,BKN055,0.00,VWS V14.00,2013-05-14 19:01:00,
2013-05-14 15:10:00,79.3,63.3,29.88,SW,225,0.0,9.0,58,0.00,,BKN055,0.00,VWS V14.00,2013-05-14 19:10:00,
2013-05-14 15:11:00,79.3,63.3,29.88,SW,225,0.0,9.0,58,0.00,,BKN055,0.00,VWS V14.00,2013-05-14 19:11:00,
2013-05-14 15:20:00,79.8,64.7,29.88,NW,318,0.0,5.0,60,0.00,,BKN055,0.00,VWS V14.00,2013-05-14 19:20:00,
2013-05-14 15:21:00,79.8,64.7,29.88,NW,318,0.0,5.0,60,0.00,,BKN055,0.00,VWS V14.00,2013-05-14 19:21:00,
2013-05-14 15:30:00,80.2,63.1,29.87,NNE,20,0.0,7.0,56,0.00,,BKN055,0.00,VWS V14.00,2013-05-14 19:30:00,
2013-05-14 15:31:00,80.2,63.1,29.87,NNE,20,0.0,7.0,56,0.00,,BKN055,0.00,VWS V14.00,2013-05-14 19:31:00,
2013-05-14 15:40:00,80.6,63.0,29.86,WSW,238,0.0,5.0,55,0.00,,BKN055,0.00,VWS V14.00,2013-05-14 19:40:00,
2013-05-14 15:41:00,80.6,63.0,29.86,WSW,238,0.0,5.0,55,0.00,,BKN055,0.00,VWS V14.00,2013-05-14 19:41:00,
2013-05-14 15:50:00,80.7,63.6,29.86,WSW,246,0.0,10.0,56,0.00,,BKN055,0.00,VWS V14.00,2013-05-14 19:50:00,
2013-05-14 15:51:00,80.7,63.6,29.86,WSW,246,0.0,10.0,56,0.00,,BKN055,0.00,VWS V14.00,2013-05-14 19:51:00,
2013-05-14 16:00:00,80.7,63.6,29.86,SW,227,2.0,12.0,56,0.00,,BKN055,0.00,VWS V14.00,2013-05-14 20:00:00,
2013-05-14 16:01:00,80.7,63.6,29.86,SW,227,2.0,12.0,56,0.00,,BKN055,0.00,VWS V14.00,2013-05-14 20:01:00,
2013-05-14 16:10:00,80.8,63.1,29.86,WSW,252,4.0,11.0,55,0.00,,BKN055,0.00,VWS V14.00,2013-05-14 20:10:00,
2013-05-14 16:11:00,80.8,63.1,29.86,WSW,252,4.0,11.0,55,0.00,,BKN055,0.00,VWS V14.00,2013-05-14 20:11:00,
2013-05-14 16:20:00,81.2,63.0,29.85,SW,215,0.0,11.0,54,0.00,,BKN055,0.00,VWS V14.00,2013-05-14 20:20:00,
2013-05-14 16:21:00,81.2,63.0,29.85,SW,215,0.0,11.0,54,0.00,,BKN055,0.00,VWS V14.00,2013-05-14 20:21:00,
2013-05-14 16:30:00,81.4,63.2,29.85,WSW,248,0.0,14.0,54,0.00,,BKN055,0.00,VWS V14.00,2013-05-14 20:30:00,
2013-05-14 16:31:00,81.4,63.2,29.85,WSW,248,0.0,14.0,54,0.00,,BKN055,0.00,VWS V14.00,2013-05-14 20:31:00,
2013-05-14 16:40:00,81.6,63.4,29.84,West,281,5.0,8.0,54,0.00,,BKN055,0.00,VWS V14.00,2013-05-14 20:40:00,
2013-05-14 16:41:00,81.6,63.4,29.84,West,281,5.0,8.0,54,0.00,,BKN055,0.00,VWS V14.00,2013-05-14 20:41:00,
2013-05-14 16:50:00,81.8,61.4,29.84,WSW,246,0.0,8.0,50,0.00,,BKN055,0.00,VWS V14.00,2013-05-14 20:50:00,
2013-05-14 16:51:00,81.8,61.4,29.84,WSW,246,0.0,8.0,50,0.00,,BKN055,0.00,VWS V14.00,2013-05-14 20:51:00,
2013-05-14 17:00:00,81.8,63.5,29.83,SSW,210,0.0,11.0,54,0.00,,BKN055,0.00,VWS V14.00,2013-05-14 21:00:00,
2013-05-14 17:01:00,81.8,63.5,29.83,SSW,210,0.0,11.0,54,0.00,,BKN055,0.00,VWS V14.00,2013-05-14 21:01:00,
2013-05-14 17:10:00,81.7,62.9,29.83,WNW,284,4.0,12.0,53,0.00,,BKN055,0.00,VWS V14.00,2013-05-14 21:10:00,
2013-05-14 17:11:00,81.7,62.9,29.83,WNW,284,4.0,12.0,53,0.00,,BKN055,0.00,VWS V14.00,2013-05-14 21:11:00,
2013-05-14 17:20:00,81.8,61.9,29.83,SSW,208,3.0,10.0,51,0.00,,BKN055,0.00,VWS V14.00,2013-05-14 21:20:00,
2013-05-14 17:21:00,81.8,61.9,29.83,SSW,208,3.0,10.0,51,0.00,,BKN055,0.00,VWS V14.00,2013-05-14 21:21:00,
2013-05-14 17:30:00,81.7,61.3,29.82,SW,219,6.0,13.0,50,0.00,,BKN055,0.00,VWS V14.00,2013-05-14 21:30:00,
2013-05-14 17:31:00,81.7,61.3,29.82,SW,219,6.0,13.0,50,0.00,,BKN055,0.00,VWS V14.00,2013-05-14 21:31:00,
2013-05-14 17:40:00,82.2,62.3,29.82,SSW,205,0.0,10.0,51,0.00,,BKN055,0.00,VWS V14.00,2013-05-14 21:40:00,
2013-05-14 17:41:00,82.2,62.3,29.82,SSW,205,0.0,10.0,51,0.00,,BKN055,0.00,VWS V14.00,2013-05-14 21:41:00,
2013-05-14 17:50:00,82.7,62.8,29.81,WNW,293,10.0,14.0,51,0.00,,BKN055,0.00,VWS V14.00,2013-05-14 21:50:00,
2013-05-14 17:51:00,82.7,62.8,29.81,WNW,293,10.0,14.0,51,0.00,,BKN055,0.00,VWS V14.00,2013-05-14 21:51:00,
2013-05-14 18:00:00,82.1,64.3,29.81,South,169,4.0,11.0,55,0.00,,BKN055,0.00,VWS V14.00,2013-05-14 22:00:00,
2013-05-14 18:01:00,82.1,64.3,29.81,South,169,4.0,11.0,55,0.00,,BKN055,0.00,VWS V14.00,2013-05-14 22:01:00,
2013-05-14 18:10:00,81.6,61.7,29.81,WSW,238,5.0,13.0,51,0.00,,BKN055,0.00,VWS V14.00,2013-05-14 22:10:00,
2013-05-14 18:11:00,81.6,61.7,29.81,WSW,238,5.0,13.0,51,0.00,,BKN055,0.00,VWS V14.00,2013-05-14 22:11:00,
2013-05-14 18:20:00,81.7,62.4,29.81,SE,146,2.0,10.0,52,0.00,,BKN055,0.00,VWS V14.00,2013-05-14 22:20:00,
2013-05-14 18:21:00,81.7,62.4,29.81,SE,146,2.0,10.0,52,0.00,,BKN055,0.00,VWS V14.00,2013-05-14 22:21:00,
2013-05-14 18:30:00,82.3,62.4,29.81,ESE,121,5.0,12.0,51,0.00,,BKN055,0.00,VWS V14.00,2013-05-14 22:30:00,
2013-05-14 18:31:00,82.3,62.4,29.81,ESE,121,5.0,12.0,51,0.00,,BKN055,0.00,VWS V14.00,2013-05-14 22:31:00,
2013-05-14 18:40:00,82.2,62.3,29.81,SSW,206,10.0,13.0,51,0.00,,BKN055,0.00,VWS V14.00,2013-05-14 22:40:00,
2013-05-14 18:41:00,82.2,62.3,29.81,SSW,206,10.0,13.0,51,0.00,,BKN055,0.00,VWS V14.00,2013-05-14 22:41:00,
2013-05-14 18:50:00,81.9,63.1,29.81,SW,232,6.0,14.0,53,0.00,,BKN055,0.00,VWS V14.00,2013-05-14 22:50:00,
2013-05-14 18:51:00,81.9,63.1,29.81,SW,232,6.0,14.0,53,0.00,,BKN055,0.00,VWS V14.00,2013-05-14 22:51:00,
2013-05-14 19:00:00,82.2,63.4,29.81,WSW,238,0.0,13.0,53,0.00,,BKN055,0.00,VWS V14.00,2013-05-14 23:00:00,
2013-05-14 19:01:00,82.2,63.4,29.81,WSW,238,0.0,13.0,53,0.00,,BKN055,0.00,VWS V14.00,2013-05-14 23:01:00,
2013-05-14 19:10:00,82.2,63.4,29.81,WSW,248,4.0,14.0,53,0.00,,BKN055,0.00,VWS V14.00,2013-05-14 23:10:00,
2013-05-14 19:11:00,82.2,63.4,29.81,WSW,248,4.0,14.0,53,0.00,,BKN055,0.00,VWS V14.00,2013-05-14 23:11:00,
2013-05-14 19:20:00,82.1,62.8,29.82,SSE,153,5.0,7.0,52,0.00,,BKN055,0.00,VWS V14.00,2013-05-14 23:20:00,
2013-05-14 19:21:00,82.1,62.8,29.82,SSE,153,5.0,7.0,52,0.00,,BKN055,0.00,VWS V14.00,2013-05-14 23:21:00,
2013-05-14 19:30:00,81.8,63.0,29.82,SSW,209,6.0,11.0,53,0.00,,BKN055,0.00,VWS V14.00,2013-05-14 23:30:00,
2013-05-14 19:31:00,81.8,63.0,29.82,SSW,209,6.0,11.0,53,0.00,,BKN055,0.00,VWS V14.00,2013-05-14 23:31:00,
2013-05-14 19:40:00,81.6,62.8,29.82,WSW,240,0.0,13.0,53,0.00,,BKN055,0.00,VWS V14.00,2013-05-14 23:40:00,
2013-05-14 19:41:00,81.6,62.8,29.82,WSW,240,0.0,13.0,53,0.00,,BKN055,0.00,VWS V14.00,2013-05-14 23:41:00,
2013-05-14 19:50:00,81.3,63.1,29.82,SSE,160,0.0,11.0,54,0.00,,BKN055,0.00,VWS V14.00,2013-05-14 23:50:00,
2013-05-14 19:51:00,81.3,63.1,29.82,SSE,160,0.0,11.0,54,0.00,,BKN055,0.00,VWS V14.00,2013-05-14 23:51:00,
2013-05-14 20:00:00,80.9,62.7,29.82,SW,218,1.0,10.0,54,0.00,,BKN055,0.00,VWS V14.00,2013-05-15 00:00:00,
2013-05-14 20:01:00,80.9,62.7,29.82,SW,218,1.0,10.0,54,0.00,,BKN055,0.00,VWS V14.00,2013-05-15 00:01:00,
2013-05-14 20:10:00,80.4,63.3,29.82,South,180,0.0,5.0,56,0.00,,BKN055,0.00,VWS V14.00,2013-05-15 00:10:00,
2013-05-14 20:11:00,80.4,63.3,29.82,South,180,0.0,5.0,56,0.00,,BKN055,0.00,VWS V14.00,2013-05-15 00:11:00,
2013-05-14 20:20:00,79.6,63.0,29.83,South,175,1.0,6.0,57,0.00,,BKN055,0.00,VWS V14.00,2013-05-15 00:20:00,
2013-05-14 20:21:00,79.6,63.0,29.83,South,175,1.0,6.0,57,0.00,,BKN055,0.00,VWS V14.00,2013-05-15 00:21:00,
2013-05-14 20:30:00,78.5,63.0,29.82,South,177,3.0,4.0,59,0.00,,BKN055,0.00,VWS V14.00,2013-05-15 00:30:00,
2013-05-14 20:31:00,78.5,63.0,29.82,South,177,3.0,4.0,59,0.00,,BKN055,0.00,VWS V14.00,2013-05-15 00:31:00,
2013-05-14 20:40:00,77.3,62.3,29.83,NNE,25,0.0,5.0,60,0.00,,BKN055,0.00,VWS V14.00,2013-05-15 00:40:00,
2013-05-14 20:41:00,77.3,62.3,29.83,NNE,25,0.0,5.0,60,0.00,,BKN055,0.00,VWS V14.00,2013-05-15 00:41:00,
2013-05-14 20:50:00,76.5,63.0,29.83,SW,220,0.0,4.0,63,0.00,,BKN055,0.00,VWS V14.00,2013-05-15 00:50:00,
2013-05-14 20:51:00,76.5,63.0,29.83,SW,220,0.0,4.0,63,0.00,,BKN055,0.00,VWS V14.00,2013-05-15 00:51:00,
2013-05-14 21:00:00,75.9,62.4,29.83,SSW,206,0.0,4.0,63,0.00,,BKN055,0.00,VWS V14.00,2013-05-15 01:00:00,
2013-05-14 21:01:00,75.9,62.4,29.83,SSW,206,0.0,4.0,63,0.00,,BKN055,0.00,VWS V14.00,2013-05-15 01:01:00,
2013-05-14 21:10:00,75.4,62.8,29.83,SW,214,0.0,3.0,65,0.00,,BKN055,0.00,VWS V14.00,2013-05-15 01:10:00,
2013-05-14 21:11:00,75.4,62.8,29.83,SW,214,0.0,3.0,65,0.00,,BKN055,0.00,VWS V14.00,2013-05-15 01:11:00,
2013-05-14 21:20:00,74.6,62.9,29.84,SSW,213,0.0,0.0,67,0.00,,BKN055,0.00,VWS V14.00,2013-05-15 01:20:00,
2013-05-14 21:21:00,74.6,62.9,29.84,SSW,213,0.0,0.0,67,0.00,,BKN055,0.00,VWS V14.00,2013-05-15 01:21:00,
2013-05-14 21:30:00,73.5,62.7,29.84,SSW,213,0.0,0.0,69,0.00,,BKN055,0.00,VWS V14.00,2013-05-15 01:30:00,
2013-05-14 21:31:00,73.5,62.7,29.84,SSW,213,0.0,0.0,69,0.00,,BKN055,0.00,VWS V14.00,2013-05-15 01:31:00,
2013-05-14 21:40:00,72.2,62.3,29.84,SSW,213,0.0,0.0,71,0.00,,BKN055,0.00,VWS V14.00,2013-05-15 01:40:00,
2013-05-14 21:41:00,72.2,62.3,29.84,SSW,213,0.0,0.0,71,0.00,,BKN055,0.00,VWS V14.00,2013-05-15 01:41:00,
2013-05-14 21:50:00,70.9,62.6,29.85,SSW,213,0.0,0.0,75,0.00,,BKN055,0.00,VWS V14.00,2013-05-15 01:50:00,
2013-05-14 21:51:00,70.9,62.6,29.85,SSW,213,0.0,0.0,75,0.00,,BKN055,0.00,VWS V14.00,2013-05-15 01:51:00,
2013-05-14 22:00:00,68.9,62.5,29.85,SSW,213,0.0,2.0,80,0.00,,BKN055,0.00,VWS V14.00,2013-05-15 02:00:00,
2013-05-14 22:01:00,68.9,62.5,29.85,SSW,213,0.0,2.0,80,0.00,,BKN055,0.00,VWS V14.00,2013-05-15 02:01:00,
2013-05-14 22:10:00,67.6,61.9,29.86,SSW,213,0.0,0.0,82,0.00,,BKN055,0.00,VWS V14.00,2013-05-15 02:10:00,
2013-05-14 22:11:00,67.6,61.9,29.86,SSW,213,0.0,0.0,82,0.00,,BKN055,0.00,VWS V14.00,2013-05-15 02:11:00,
2013-05-14 22:20:00,66.6,61.3,29.86,SSW,213,0.0,0.0,83,0.00,,BKN055,0.00,VWS V14.00,2013-05-15 02:20:00,
2013-05-14 22:21:00,66.6,61.3,29.86,SSW,213,0.0,0.0,83,0.00,,BKN055,0.00,VWS V14.00,2013-05-15 02:21:00,
2013-05-14 22:30:00,65.8,60.8,29.87,SSW,213,0.0,0.0,84,0.00,,BKN055,0.00,VWS V14.00,2013-05-15 02:30:00,
2013-05-14 22:31:00,65.8,60.8,29.87,SSW,213,0.0,0.0,84,0.00,,BKN055,0.00,VWS V14.00,2013-05-15 02:31:00,
2013-05-14 22:40:00,64.8,60.5,29.87,SSW,213,0.0,0.0,86,0.00,,BKN055,0.00,VWS V14.00,2013-05-15 02:40:00,
2013-05-14 22:41:00,64.8,60.5,29.87,SSW,213,0.0,0.0,86,0.00,,BKN055,0.00,VWS V14.00,2013-05-15 02:41:00,
2013-05-14 22:50:00,64.1,60.5,29.87,SSW,213,0.0,0.0,88,0.00,,BKN055,0.00,VWS V14.00,2013-05-15 02:50:00,
2013-05-14 22:51:00,64.1,60.5,29.87,SSW,213,0.0,0.0,88,0.00,,BKN055,0.00,VWS V14.00,2013-05-15 02:51:00,
2013-05-14 23:00:00,63.6,60.6,29.87,SSW,213,0.0,0.0,90,0.00,,BKN055,0.00,VWS V14.00,2013-05-15 03:00:00,
2013-05-14 23:01:00,63.6,60.6,29.87,SSW,213,0.0,0.0,90,0.00,,BKN055,0.00,VWS V14.00,2013-05-15 03:01:00,
2013-05-14 23:10:00,63.3,60.6,29.87,SSW,213,0.0,0.0,91,0.00,,BKN055,0.00,VWS V14.00,2013-05-15 03:10:00,
2013-05-14 23:11:00,63.3,60.6,29.87,SSW,213,0.0,0.0,91,0.00,,BKN055,0.00,VWS V14.00,2013-05-15 03:11:00,
2013-05-14 23:20:00,62.9,60.2,29.87,SSW,213,0.0,0.0,91,0.00,,BKN055,0.00,VWS V14.00,2013-05-15 03:20:00,
2013-05-14 23:21:00,62.9,60.2,29.87,SSW,213,0.0,0.0,91,0.00,,BKN055,0.00,VWS V14.00,2013-05-15 03:21:00,
2013-05-14 23:30:00,62.5,60.2,29.86,SSW,213,0.0,0.0,92,0.00,,BKN055,0.00,VWS V14.00,2013-05-15 03:30:00,
2013-05-14 23:31:00,62.5,60.2,29.86,SSW,213,0.0,0.0,92,0.00,,BKN055,0.00,VWS V14.00,2013-05-15 03:31:00,
2013-05-14 23:40:00,61.9,59.2,29.86,SSW,213,0.0,0.0,91,0.00,,BKN055,0.00,VWS V14.00,2013-05-15 03:40:00,
2013-05-14 23:41:00,61.9,59.2,29.86,SSW,213,0.0,0.0,91,0.00,,BKN055,0.00,VWS V14.00,2013-05-15 03:41:00,
2013-05-14 23:50:00,61.6,59.6,29.86,SSW,213,0.0,1.0,93,0.00,,BKN055,0.00,VWS V14.00,2013-05-15 03:50:00,
2013-05-14 23:51:00,61.6,59.6,29.86,SSW,213,0.0,1.0,93,0.00,,BKN055,0.00,VWS V14.00,2013-05-15 03:51:00,